createdAt,value
2019-04-20T00:00:30.510Z,50.40
2019-04-20T00:03:01.357Z,50.70
2019-04-20T00:05:32.958Z,50.70
2019-04-20T00:08:08.985Z,50.70
2019-04-20T00:10:46.562Z,50.70
2019-04-20T00:13:19.398Z,51.00
2019-04-20T00:15:38.974Z,50.70
2019-04-20T00:18:11.511Z,50.60
2019-04-20T00:20:43.870Z,50.90
2019-04-20T00:23:22.851Z,50.50
2019-04-20T00:26:14.668Z,50.50
2019-04-20T00:28:55.958Z,50.60
2019-04-20T00:31:27.953Z,51.30
2019-04-20T00:33:54.984Z,50.60
2019-04-20T00:36:16.084Z,50.40
2019-04-20T00:38:52.940Z,50.40
2019-04-20T00:41:21.207Z,50.80
2019-04-20T00:43:51.177Z,51.30
2019-04-20T00:46:29.231Z,51.00
2019-04-20T00:49:01.586Z,51.00
2019-04-20T00:51:39.562Z,51.00
2019-04-20T00:53:58.727Z,51.10
2019-04-20T00:56:28.845Z,51.20
2019-04-20T00:59:12.964Z,51.00
2019-04-20T01:01:53.492Z,50.90
2019-04-20T01:04:19.863Z,51.10
2019-04-20T01:06:55.074Z,51.20
2019-04-20T01:09:18.092Z,51.10
2019-04-20T01:11:49.756Z,51.50
2019-04-20T01:14:30.505Z,50.70
2019-04-20T01:16:59.986Z,50.70
2019-04-20T01:19:23.455Z,51.50
2019-04-20T01:21:59.990Z,51.80
2019-04-20T01:24:31.370Z,52.10
2019-04-20T01:27:00.785Z,51.70
2019-04-20T01:29:38.417Z,51.50
2019-04-20T01:32:12.506Z,51.10
2019-04-20T01:34:45.922Z,51.30
2019-04-20T01:37:21.223Z,51.50
2019-04-20T01:39:44.368Z,51.40
2019-04-20T01:42:09.323Z,51.40
2019-04-20T01:44:45.341Z,51.60
2019-04-20T01:47:13.355Z,52.10
2019-04-20T01:49:47.785Z,52.40
2019-04-20T01:52:22.999Z,52.70
2019-04-20T01:55:14.294Z,52.50
2019-04-20T01:58:00.157Z,52.90
2019-04-20T02:00:32.778Z,52.70
2019-04-20T02:03:08.205Z,53.60
2019-04-20T02:05:40.039Z,53.30
2019-04-20T02:08:14.505Z,53.50
2019-04-20T02:10:48.604Z,53.30
2019-04-20T02:13:13.021Z,53.50
2019-04-20T02:15:49.441Z,53.70
2019-04-20T02:18:29.697Z,53.70
2019-04-20T02:21:08.241Z,53.50
2019-04-20T02:23:31.802Z,53.60
2019-04-20T02:25:50.418Z,53.80
2019-04-20T02:28:37.217Z,53.70
2019-04-20T02:31:32.564Z,53.60
2019-04-20T02:34:03.892Z,54.80
2019-04-20T02:36:51.588Z,53.60
2019-04-20T02:39:33.016Z,53.70
2019-04-20T02:42:08.339Z,53.70
2019-04-20T02:44:36.827Z,53.00
2019-04-20T02:46:57.488Z,53.60
2019-04-20T02:49:40.366Z,54.00
2019-04-20T02:52:13.479Z,53.80
2019-04-20T02:54:26.049Z,53.90
2019-04-20T02:59:56.272Z,53.60
2019-04-20T03:01:50.213Z,54.00
2019-04-20T03:04:19.230Z,54.70
2019-04-20T03:06:54.982Z,53.50
2019-04-20T03:09:32.445Z,53.50
2019-04-20T03:14:30.328Z,53.70
2019-04-20T03:17:09.894Z,53.60
2019-04-20T03:19:31.368Z,54.20
2019-04-20T03:22:19.236Z,53.60
2019-04-20T03:25:03.914Z,54.20
2019-04-20T03:27:14.589Z,54.40
2019-04-20T03:29:52.568Z,54.10
2019-04-20T03:35:05.294Z,54.00
2019-04-20T03:39:56.740Z,54.30
2019-04-20T03:42:14.208Z,54.80
2019-04-20T03:44:51.247Z,55.00
2019-04-20T03:47:28.888Z,54.20
2019-04-20T03:50:10.506Z,53.70
2019-04-20T03:52:43.557Z,54.40
2019-04-20T03:55:26.288Z,53.80
2019-04-20T03:58:03.445Z,53.70
2019-04-20T04:00:43.412Z,54.00
2019-04-20T04:03:31.761Z,54.60
2019-04-20T04:05:54.822Z,54.60
2019-04-20T04:08:17.060Z,54.60
2019-04-20T04:10:58.491Z,54.20
2019-04-20T04:13:14.554Z,54.60
2019-04-20T04:15:53.270Z,54.80
2019-04-20T04:18:27.257Z,55.10
2019-04-20T04:20:59.029Z,55.20
2019-04-20T04:23:40.912Z,54.70
2019-04-20T04:26:10.379Z,54.80
2019-04-20T04:28:40.714Z,55.50
2019-04-20T04:31:22.864Z,54.20
2019-04-20T04:33:55.824Z,54.40
2019-04-20T04:36:16.610Z,54.50
2019-04-20T04:39:11.394Z,54.80
2019-04-20T04:41:27.086Z,54.80
2019-04-20T04:43:53.864Z,54.30
2019-04-20T04:46:10.223Z,54.60
2019-04-20T04:48:44.758Z,55.30
2019-04-20T04:51:18.483Z,55.00
2019-04-20T04:53:52.927Z,55.10
2019-04-20T04:56:18.876Z,54.90
2019-04-20T04:58:47.718Z,55.90
2019-04-20T05:01:22.380Z,55.00
2019-04-20T05:04:14.608Z,53.70
2019-04-20T05:06:35.902Z,54.20
2019-04-20T05:08:58.529Z,54.90
2019-04-20T05:11:26.276Z,54.50
2019-04-20T05:14:03.090Z,55.50
2019-04-20T05:16:45.145Z,55.60
2019-04-20T05:19:18.985Z,56.90
2019-04-20T05:24:33.754Z,54.70
2019-04-20T05:27:30.183Z,55.00
2019-04-20T05:29:41.393Z,55.20
2019-04-20T05:32:19.688Z,53.50
2019-04-20T05:35:12.288Z,54.30
2019-04-20T05:37:41.425Z,53.90
2019-04-20T05:40:10.430Z,54.60
2019-04-20T05:42:42.983Z,53.50
2019-04-20T05:45:11.778Z,51.50
2019-04-20T05:47:45.504Z,50.50
2019-04-20T05:50:16.621Z,54.00
2019-04-20T05:52:56.304Z,51.80
2019-04-20T05:55:20.821Z,46.80
2019-04-20T05:57:57.061Z,52.30
2019-04-20T06:00:37.434Z,52.70
2019-04-20T06:03:04.120Z,46.90
2019-04-20T06:05:45.932Z,52.70
2019-04-20T06:08:09.380Z,51.50
2019-04-20T06:10:45.515Z,50.40
2019-04-20T06:13:22.478Z,49.40
2019-04-20T06:16:14.195Z,51.00
2019-04-20T06:18:51.696Z,51.50
2019-04-20T06:21:34.024Z,51.20
2019-04-20T06:24:03.330Z,49.80
2019-04-20T06:29:02.887Z,50.00
2019-04-20T06:31:35.634Z,50.10
2019-04-20T06:34:30.145Z,49.20
2019-04-20T06:39:46.504Z,49.60
2019-04-20T06:47:13.548Z,48.70
2019-04-20T06:49:51.606Z,48.70
2019-04-20T06:52:25.970Z,48.50
2019-04-20T06:57:40.768Z,47.60
2019-04-20T07:02:48.338Z,47.70
2019-04-20T07:05:19.096Z,47.40
2019-04-20T07:12:44.979Z,46.50
2019-04-20T07:15:18.980Z,45.80
2019-04-20T07:20:52.578Z,46.10
2019-04-20T07:23:23.762Z,47.20
2019-04-20T07:25:49.636Z,46.30
2019-04-20T07:28:24.494Z,45.20
2019-04-20T07:31:01.824Z,46.30
2019-04-20T07:33:24.342Z,45.90
2019-04-20T07:35:50.851Z,44.90
2019-04-20T07:38:40.206Z,43.50
2019-04-20T07:40:53.715Z,42.70
2019-04-20T07:43:25.549Z,42.40
2019-04-20T07:46:04.203Z,43.00
2019-04-20T07:48:26.186Z,42.10
2019-04-20T07:50:55.583Z,42.00
2019-04-20T07:53:30.274Z,41.60
2019-04-20T07:56:04.675Z,41.10
2019-04-20T07:58:30.502Z,41.00
2019-04-20T08:01:15.191Z,40.90
2019-04-20T08:03:44.252Z,40.60
2019-04-20T08:06:21.334Z,40.70
2019-04-20T08:08:57.147Z,40.50
2019-04-20T08:11:38.005Z,40.20
2019-04-20T08:14:11.201Z,40.60
2019-04-20T08:16:46.339Z,41.30
2019-04-20T08:19:13.487Z,41.70
2019-04-20T08:21:40.847Z,42.20
2019-04-20T08:24:13.265Z,41.40
2019-04-20T08:26:32.591Z,40.70
2019-04-20T08:29:09.177Z,41.20
2019-04-20T08:31:49.047Z,40.50
2019-04-20T08:34:39.809Z,39.50
2019-04-20T08:37:03.176Z,38.80
2019-04-20T08:39:46.345Z,38.30
2019-04-20T08:42:06.318Z,38.80
2019-04-20T08:44:54.751Z,38.20
2019-04-20T08:47:33.689Z,38.20
2019-04-20T08:49:53.810Z,38.30
2019-04-20T08:52:39.252Z,38.00
2019-04-20T08:54:43.330Z,37.90
2019-04-20T08:57:03.193Z,37.20
2019-04-20T08:59:33.942Z,38.10
2019-04-20T09:02:10.312Z,38.40
2019-04-20T09:04:46.877Z,37.30
2019-04-20T09:07:17.603Z,37.20
2019-04-20T09:10:11.898Z,37.10
2019-04-20T09:12:32.153Z,37.00
2019-04-20T09:14:46.297Z,37.10
2019-04-20T09:17:27.134Z,36.50
2019-04-20T09:20:00.008Z,37.30
2019-04-20T09:22:58.265Z,36.80
2019-04-20T09:25:49.757Z,36.00
2019-04-20T09:28:18.901Z,35.90
2019-04-20T09:30:51.988Z,35.30
2019-04-20T09:33:46.061Z,36.30
2019-04-20T09:36:24.243Z,34.60
2019-04-20T09:39:08.726Z,32.40
2019-04-20T09:41:59.866Z,30.70
2019-04-20T09:44:20.066Z,28.40
2019-04-20T09:46:55.880Z,28.60
2019-04-20T09:49:37.512Z,28.20
2019-04-20T09:52:06.850Z,27.70
2019-04-20T09:54:45.580Z,26.90
2019-04-20T09:57:22.755Z,26.10
2019-04-20T09:59:50.074Z,25.60
2019-04-20T10:02:07.714Z,25.00
2019-04-20T10:04:33.488Z,23.00
2019-04-20T10:07:11.201Z,23.20
2019-04-20T10:09:39.870Z,23.80
2019-04-20T10:12:07.940Z,23.00
2019-04-20T10:14:38.480Z,22.30
2019-04-20T10:17:09.756Z,21.00
2019-04-20T10:19:41.823Z,20.90
2019-04-20T10:22:13.081Z,21.30
2019-04-20T10:24:45.858Z,21.50
2019-04-20T10:27:15.136Z,20.70
2019-04-20T10:29:45.844Z,21.20
2019-04-20T10:32:17.560Z,21.50
2019-04-20T10:34:48.556Z,21.90
2019-04-20T10:37:21.742Z,21.30
2019-04-20T10:39:52.344Z,21.40
2019-04-20T10:42:22.316Z,22.70
2019-04-20T10:44:57.681Z,22.50
2019-04-20T10:47:27.344Z,21.90
2019-04-20T10:49:58.810Z,23.80
2019-04-20T10:52:30.079Z,23.90
2019-04-20T10:55:00.659Z,24.40
2019-04-20T10:57:31.256Z,23.30
2019-04-20T11:00:01.813Z,24.80
2019-04-20T11:02:35.016Z,25.20
2019-04-20T11:05:06.630Z,24.30
2019-04-20T11:07:36.892Z,25.80
2019-04-20T11:10:16.248Z,24.30
2019-04-20T11:12:40.094Z,25.10
2019-04-20T11:15:10.463Z,27.40
2019-04-20T11:17:41.683Z,26.20
2019-04-20T11:20:12.973Z,26.00
2019-04-20T11:22:44.258Z,25.20
2019-04-20T11:25:16.592Z,26.20
2019-04-20T11:27:47.982Z,25.20
2019-04-20T11:30:18.501Z,26.40
2019-04-20T11:32:48.922Z,25.20
2019-04-20T11:35:25.591Z,26.10
2019-04-20T11:37:51.265Z,25.30
2019-04-20T11:40:21.413Z,25.10
2019-04-20T11:42:51.483Z,25.40
2019-04-20T11:45:22.595Z,24.40
2019-04-20T11:47:53.737Z,24.20
2019-04-20T11:50:25.205Z,25.40
2019-04-20T11:52:57.198Z,25.80
2019-04-20T11:55:28.546Z,25.20
2019-04-20T11:57:58.633Z,25.20
2019-04-20T12:00:52.238Z,25.70
2019-04-20T12:03:24.812Z,26.10
2019-04-20T12:05:54.540Z,24.00
2019-04-20T12:08:22.967Z,25.60
2019-04-20T12:10:57.755Z,27.10
2019-04-20T12:13:26.775Z,25.60
2019-04-20T12:15:57.033Z,26.00
2019-04-20T12:18:27.615Z,25.30
2019-04-20T12:20:58.883Z,26.60
2019-04-20T12:23:29.005Z,26.60
2019-04-20T12:25:59.791Z,25.70
2019-04-20T12:28:29.982Z,27.50
2019-04-20T12:31:06.393Z,26.40
2019-04-20T12:33:32.597Z,26.60
2019-04-20T12:36:03.155Z,25.30
2019-04-20T12:38:33.290Z,26.70
2019-04-20T12:41:04.847Z,25.80
2019-04-20T12:43:36.018Z,26.50
2019-04-20T12:46:07.536Z,26.00
2019-04-20T12:48:37.804Z,26.50
2019-04-20T12:51:07.905Z,27.30
2019-04-20T12:53:38.366Z,26.10
2019-04-20T12:56:08.741Z,27.10
2019-04-20T12:58:41.803Z,28.00
2019-04-20T13:01:12.083Z,26.30
2019-04-20T13:03:43.485Z,26.60
2019-04-20T13:06:16.187Z,27.40
2019-04-20T13:08:51.857Z,26.70
2019-04-20T13:11:24.629Z,27.00
2019-04-20T13:14:08.358Z,27.90
2019-04-20T13:16:39.012Z,26.40
2019-04-20T13:19:09.287Z,27.90
2019-04-20T13:21:40.891Z,27.80
2019-04-20T13:24:11.417Z,27.70
2019-04-20T13:26:42.793Z,28.10
2019-04-20T13:29:13.014Z,27.60
2019-04-20T18:12:37.412Z,26.70
2019-04-20T18:15:20.548Z,27.10
2019-04-20T18:17:56.268Z,29.00
2019-04-20T18:20:30.535Z,29.50
2019-04-20T18:23:02.387Z,30.10
2019-04-20T18:25:59.122Z,30.40
2019-04-20T18:28:19.724Z,30.20
2019-04-20T18:30:48.854Z,30.90
2019-04-20T18:33:13.671Z,31.50
2019-04-20T18:35:47.147Z,32.30
2019-04-20T18:38:17.039Z,32.30
2019-04-20T18:40:58.176Z,32.50
2019-04-20T18:43:22.713Z,32.90
2019-04-20T18:49:39.843Z,32.50
2019-04-20T18:51:57.742Z,32.50
2019-04-20T18:54:31.795Z,32.70
2019-04-20T18:57:01.668Z,33.20
2019-04-20T18:59:41.743Z,33.00
2019-04-20T19:02:06.740Z,32.90
2019-04-20T19:04:37.672Z,32.60
2019-04-20T19:07:10.001Z,32.30
2019-04-20T19:09:41.070Z,32.30
2019-04-20T19:12:14.613Z,32.30
2019-04-20T19:15:19.728Z,32.60
2019-04-20T19:17:59.463Z,32.90
2019-04-20T19:20:20.302Z,32.80
2019-04-20T19:22:52.336Z,33.10
2019-04-20T19:25:27.021Z,33.20
2019-04-20T19:27:56.585Z,33.60
2019-04-20T19:30:35.460Z,33.80
2019-04-20T19:33:17.571Z,34.10
2019-04-20T19:35:41.565Z,34.00
2019-04-20T19:38:10.361Z,34.30
2019-04-20T19:40:45.411Z,33.90
2019-04-20T19:43:15.746Z,33.90
2019-04-20T19:46:07.449Z,33.90
2019-04-20T19:48:23.003Z,34.50
2019-04-20T19:51:05.609Z,34.00
2019-04-20T19:53:30.364Z,34.20
2019-04-20T19:56:00.064Z,34.20
2019-04-20T19:58:33.180Z,34.50
2019-04-20T20:00:55.803Z,34.40
2019-04-20T20:03:25.939Z,34.90
2019-04-20T20:05:58.237Z,35.10
2019-04-20T20:08:31.609Z,35.00
2019-04-20T20:11:02.798Z,35.60
2019-04-20T20:13:40.089Z,35.10
2019-04-20T20:16:10.466Z,35.70
2019-04-20T20:18:52.143Z,37.80
2019-04-20T20:21:20.012Z,37.20
2019-04-20T20:23:39.323Z,35.30
2019-04-20T20:26:22.020Z,34.20
2019-04-20T20:28:48.755Z,34.20
2019-04-20T20:31:27.529Z,33.70
2019-04-20T20:33:58.990Z,33.70
2019-04-20T20:36:21.334Z,33.80
2019-04-20T20:38:52.102Z,34.60
2019-04-20T20:41:27.942Z,33.10
2019-04-20T20:44:02.852Z,33.00
2019-04-20T20:46:32.818Z,33.00
2019-04-20T20:49:25.432Z,33.40
2019-04-20T20:51:49.839Z,34.00
2019-04-20T20:54:09.456Z,34.70
2019-04-20T20:56:35.626Z,33.80
2019-04-20T20:59:11.225Z,33.70
2019-04-20T21:01:48.131Z,34.10
2019-04-20T21:04:10.030Z,34.50
2019-04-20T21:06:40.344Z,33.30
2019-04-20T21:09:10.516Z,32.90
2019-04-20T21:11:42.623Z,33.60
2019-04-20T21:14:19.866Z,33.70
2019-04-20T21:16:53.489Z,33.70
2019-04-20T21:19:28.464Z,34.00
2019-04-20T21:21:55.680Z,34.40
2019-04-20T21:24:39.910Z,34.50
2019-04-20T21:27:14.896Z,34.60
2019-04-20T21:29:47.478Z,33.50
2019-04-20T21:32:16.545Z,33.90
2019-04-20T21:34:53.567Z,35.20
2019-04-20T21:37:20.087Z,34.70
2019-04-20T21:39:55.383Z,34.70
2019-04-20T21:42:24.571Z,34.90
2019-04-20T21:45:05.847Z,34.50
2019-04-20T21:47:31.473Z,36.50
2019-04-20T21:50:18.726Z,34.10
2019-04-20T21:52:37.295Z,34.60
2019-04-20T21:55:01.063Z,34.10
2019-04-20T21:57:37.375Z,34.70
2019-04-20T22:00:10.066Z,34.00
2019-04-20T22:02:44.666Z,34.40
2019-04-20T22:05:11.422Z,34.80
2019-04-20T22:07:41.695Z,34.70
2019-04-20T22:10:21.372Z,35.10
2019-04-20T22:12:48.982Z,34.60
2019-04-20T22:15:23.593Z,35.60
2019-04-20T22:17:48.554Z,35.70
2019-04-20T22:20:28.955Z,35.40
2019-04-20T22:23:02.960Z,35.50
2019-04-20T22:25:37.938Z,35.30
2019-04-20T22:27:57.397Z,35.80
2019-04-20T22:30:26.245Z,35.40
2019-04-20T22:32:59.559Z,33.80
2019-04-20T22:35:31.201Z,34.80
2019-04-20T22:38:19.251Z,35.60
2019-04-20T22:40:49.749Z,36.90
2019-04-20T22:43:26.121Z,36.70
2019-04-20T22:45:53.918Z,36.30
2019-04-20T22:48:27.070Z,36.60
2019-04-20T22:51:17.817Z,36.10
2019-04-20T22:53:44.185Z,35.90
2019-04-20T22:56:18.720Z,36.00
2019-04-20T22:58:43.252Z,36.40
2019-04-20T23:01:15.054Z,36.10
2019-04-20T23:03:36.853Z,36.30
2019-04-20T23:06:06.999Z,38.20
2019-04-20T23:08:38.296Z,38.40
2019-04-20T23:11:14.886Z,36.70
2019-04-20T23:13:43.672Z,34.90
2019-04-20T23:16:13.395Z,34.30
2019-04-20T23:18:44.797Z,33.70
2019-04-20T23:21:17.419Z,33.80
2019-04-20T23:23:46.551Z,33.40
2019-04-20T23:26:24.294Z,35.20
2019-04-20T23:28:52.526Z,35.20
2019-04-20T23:31:23.877Z,35.40
2019-04-20T23:33:53.928Z,33.10
2019-04-20T23:36:30.692Z,34.30
2019-04-20T23:38:59.216Z,35.30
2019-04-20T23:41:28.000Z,38.70
2019-04-20T23:44:04.036Z,38.10
2019-04-20T23:46:33.292Z,37.40
2019-04-20T23:49:27.313Z,36.60
2019-04-20T23:52:09.775Z,37.80
2019-04-20T23:54:27.953Z,37.70
2019-04-20T23:56:55.698Z,37.50
2019-04-20T23:59:33.639Z,38.20
